createdAt,value
2022-08-22T00:01:32.179Z,28.76
2022-08-22T00:02:46.509Z,26.75
2022-08-22T00:02:59.625Z,26.66
2022-08-22T00:03:07.585Z,25.68
2022-08-22T00:03:11.562Z,28.93
2022-08-22T00:04:26.239Z,28.90
2022-08-22T00:07:04.473Z,29.33
2022-08-22T00:10:02.451Z,29.43
2022-08-22T00:12:46.877Z,29.04
2022-08-22T00:15:42.848Z,29.62
2022-08-22T00:18:32.583Z,29.95
2022-08-22T00:21:20.879Z,29.91
2022-08-22T00:24:18.114Z,29.10
2022-08-22T00:26:55.720Z,28.92
2022-08-22T00:29:47.214Z,28.62
2022-08-22T00:32:30.491Z,28.36
2022-08-22T00:35:33.606Z,28.67
2022-08-22T00:38:15.424Z,28.53
2022-08-22T00:41:08.415Z,28.94
2022-08-22T00:44:04.638Z,29.25
2022-08-22T00:47:10.731Z,29.12
2022-08-22T00:50:00.627Z,29.14
2022-08-22T00:52:49.510Z,29.12
2022-08-22T00:55:56.104Z,28.71
2022-08-22T00:58:36.097Z,28.63
2022-08-22T01:01:09.110Z,29.03
2022-08-22T01:03:49.187Z,28.86
2022-08-22T01:06:36.493Z,28.96
2022-08-22T01:09:35.138Z,28.96
2022-08-22T01:12:19.855Z,29.26
2022-08-22T01:14:58.336Z,28.61
2022-08-22T01:17:46.203Z,28.43
2022-08-22T01:20:33.573Z,28.63
2022-08-22T01:23:40.446Z,29.17
2022-08-22T01:26:57.456Z,28.79
2022-08-22T01:29:47.777Z,29.33
2022-08-22T01:32:37.412Z,29.26
2022-08-22T01:35:36.127Z,29.42
2022-08-22T01:38:26.838Z,29.84
2022-08-22T01:41:15.485Z,30.29
2022-08-22T01:44:02.572Z,29.57
2022-08-22T01:46:48.542Z,29.78
2022-08-22T01:49:32.763Z,29.83
2022-08-22T01:52:31.067Z,29.75
2022-08-22T01:55:10.777Z,29.47
2022-08-22T01:57:59.417Z,28.70
2022-08-22T02:00:55.860Z,28.67
2022-08-22T02:03:32.638Z,28.78
2022-08-22T02:06:13.325Z,28.97
2022-08-22T02:08:53.315Z,29.16
2022-08-22T02:11:45.644Z,29.03
2022-08-22T02:14:33.724Z,28.68
2022-08-22T02:17:24.618Z,28.15
2022-08-22T02:20:25.053Z,27.97
2022-08-22T02:22:56.108Z,28.00
2022-08-22T02:25:31.489Z,27.88
2022-08-22T02:28:38.933Z,27.92
2022-08-22T02:31:26.777Z,27.67
2022-08-22T02:34:02.106Z,27.43
2022-08-22T02:36:34.918Z,27.28
2022-08-22T02:39:17.911Z,27.11
2022-08-22T02:41:55.879Z,26.84
2022-08-22T02:44:34.486Z,26.63
2022-08-22T02:47:22.218Z,26.56
2022-08-22T02:50:00.162Z,26.45
2022-08-22T02:52:36.125Z,26.31
2022-08-22T02:55:12.868Z,26.15
2022-08-22T02:57:53.458Z,25.72
2022-08-22T03:00:33.384Z,25.65
2022-08-22T03:03:29.560Z,25.73
2022-08-22T03:06:06.332Z,25.63
2022-08-22T03:08:42.863Z,25.59
2022-08-22T03:11:27.655Z,25.44
2022-08-22T03:14:20.088Z,25.23
2022-08-22T03:17:39.974Z,25.08
2022-08-22T03:20:22.617Z,24.98
2022-08-22T03:22:58.979Z,24.87
2022-08-22T03:25:50.922Z,24.67
2022-08-22T03:28:38.141Z,24.62
2022-08-22T03:31:23.623Z,24.59
2022-08-22T03:34:21.189Z,24.47
2022-08-22T03:37:03.941Z,24.30
2022-08-22T03:39:43.950Z,24.23
2022-08-22T03:42:39.217Z,24.13
2022-08-22T03:46:02.219Z,23.98
2022-08-22T03:48:50.177Z,23.09
2022-08-22T03:51:32.334Z,23.47
2022-08-22T03:54:18.280Z,23.57
2022-08-22T03:57:08.588Z,23.71
2022-08-22T03:59:56.275Z,23.65
2022-08-22T04:02:59.649Z,23.47
2022-08-22T04:05:41.438Z,23.30
2022-08-22T04:08:37.301Z,23.25
2022-08-22T04:11:40.144Z,23.27
2022-08-22T04:14:54.666Z,23.16
2022-08-22T04:17:38.146Z,23.02
2022-08-22T04:20:44.175Z,22.99
2022-08-22T04:23:28.592Z,23.05
2022-08-22T04:26:10.772Z,23.00
2022-08-22T04:29:00.177Z,23.04
2022-08-22T04:31:37.744Z,22.95
2022-08-22T04:34:23.653Z,22.99
2022-08-22T04:37:11.113Z,22.95
2022-08-22T04:39:56.909Z,22.73
2022-08-22T04:42:43.006Z,22.80
2022-08-22T04:45:24.297Z,22.68
2022-08-22T04:47:57.939Z,22.51
2022-08-22T04:50:43.180Z,22.40
2022-08-22T04:53:41.222Z,22.32
2022-08-22T04:56:12.963Z,22.33
2022-08-22T04:59:17.666Z,22.21
2022-08-22T05:02:09.658Z,22.05
2022-08-22T05:04:50.385Z,21.97
2022-08-22T05:07:29.275Z,22.23
2022-08-22T05:10:35.137Z,22.21
2022-08-22T05:13:33.473Z,22.11
2022-08-22T05:16:07.117Z,21.78
2022-08-22T05:18:52.357Z,21.82
2022-08-22T05:21:27.137Z,21.64
2022-08-22T05:24:02.344Z,21.32
2022-08-22T05:26:39.012Z,21.08
2022-08-22T05:29:11.787Z,21.30
2022-08-22T05:31:50.891Z,21.36
2022-08-22T05:34:29.525Z,21.69
2022-08-22T05:37:08.213Z,21.37
2022-08-22T05:39:41.202Z,21.55
2022-08-22T05:42:16.806Z,21.49
2022-08-22T05:44:46.163Z,21.31
2022-08-22T05:47:40.960Z,21.04
2022-08-22T05:50:24.988Z,21.03
2022-08-22T05:53:19.033Z,20.87
2022-08-22T05:55:50.841Z,21.09
2022-08-22T05:58:42.251Z,20.95
2022-08-22T06:01:29.795Z,20.62
2022-08-22T06:04:10.825Z,20.61
2022-08-22T06:07:11.264Z,20.56
2022-08-22T06:09:50.001Z,20.97
2022-08-22T06:12:44.569Z,20.97
2022-08-22T06:15:28.944Z,20.73
2022-08-22T06:18:08.583Z,20.85
2022-08-22T06:20:57.948Z,20.63
2022-08-22T06:24:09.705Z,20.34
2022-08-22T06:26:48.567Z,20.07
2022-08-22T06:29:30.964Z,20.18
2022-08-22T06:32:08.131Z,20.37
2022-08-22T06:34:42.519Z,20.50
2022-08-22T06:37:29.222Z,20.22
2022-08-22T06:40:01.916Z,20.58
2022-08-22T06:42:34.368Z,20.71
2022-08-22T06:45:23.605Z,20.53
2022-08-22T06:48:00.554Z,20.46
2022-08-22T06:50:59.440Z,20.39
2022-08-22T06:53:40.316Z,20.50
2022-08-22T06:56:24.696Z,20.29
2022-08-22T06:58:57.728Z,20.13
2022-08-22T07:01:32.364Z,19.62
2022-08-22T07:04:12.291Z,19.83
2022-08-22T07:06:45.151Z,19.81
2022-08-22T07:09:40.306Z,20.06
2022-08-22T07:12:19.175Z,20.03
2022-08-22T07:14:54.838Z,19.91
2022-08-22T07:17:30.860Z,19.76
2022-08-22T07:20:25.483Z,19.47
2022-08-22T07:23:05.086Z,19.79
2022-08-22T07:25:46.487Z,19.67
2022-08-22T07:28:51.449Z,19.63
2022-08-22T07:31:52.383Z,19.59
2022-08-22T07:34:29.513Z,19.46
2022-08-22T07:37:14.254Z,19.74
2022-08-22T07:40:44.835Z,19.93
2022-08-22T07:43:42.758Z,19.54
2022-08-22T07:46:42.468Z,19.71
2022-08-22T07:49:30.288Z,19.51
2022-08-22T07:52:08.978Z,19.45
2022-08-22T07:54:47.997Z,19.60
2022-08-22T07:57:40.613Z,19.41
2022-08-22T08:00:19.820Z,19.42
2022-08-22T08:03:02.362Z,19.00
2022-08-22T08:05:36.770Z,19.18
2022-08-22T08:08:46.530Z,19.12
2022-08-22T08:11:18.001Z,18.98
2022-08-22T08:13:51.022Z,18.85
2022-08-22T08:16:26.457Z,18.96
2022-08-22T08:18:59.549Z,18.84
2022-08-22T08:21:54.410Z,19.24
2022-08-22T08:24:44.528Z,19.34
2022-08-22T08:27:42.232Z,19.33
2022-08-22T08:30:17.232Z,19.38
2022-08-22T08:33:24.345Z,19.29
2022-08-22T08:36:12.504Z,19.22
2022-08-22T08:39:13.200Z,18.90
2022-08-22T08:41:58.242Z,19.12
2022-08-22T08:44:42.548Z,18.73
2022-08-22T08:47:26.171Z,18.84
2022-08-22T08:50:21.495Z,19.03
2022-08-22T08:53:19.799Z,19.08
2022-08-22T08:56:00.192Z,18.88
2022-08-22T08:58:44.238Z,18.72
2022-08-22T09:01:19.505Z,18.47
2022-08-22T09:04:01.205Z,18.84
2022-08-22T09:06:52.776Z,18.61
2022-08-22T09:10:00.989Z,18.78
2022-08-22T09:12:57.110Z,18.73
2022-08-22T09:16:10.398Z,18.72
2022-08-22T09:18:48.193Z,18.64
2022-08-22T09:21:36.301Z,18.61
2022-08-22T09:24:25.168Z,18.38
2022-08-22T09:27:33.625Z,18.06
2022-08-22T09:30:12.612Z,18.45
2022-08-22T09:33:14.595Z,18.56
2022-08-22T09:36:05.190Z,18.46
2022-08-22T09:38:40.563Z,18.28
2022-08-22T09:41:28.812Z,18.36
2022-08-22T09:44:54.831Z,18.23
2022-08-22T09:47:42.389Z,18.41
2022-08-22T09:50:17.041Z,18.26
2022-08-22T09:52:50.131Z,18.37
2022-08-22T09:55:36.515Z,18.33
2022-08-22T09:58:27.796Z,18.09
2022-08-22T10:00:59.374Z,18.04
2022-08-22T10:04:04.677Z,18.15
2022-08-22T10:06:47.329Z,17.88
2022-08-22T10:09:31.149Z,17.98
2022-08-22T10:12:16.285Z,17.96
2022-08-22T10:15:06.891Z,18.00
2022-08-22T10:17:41.408Z,18.25
2022-08-22T10:20:29.838Z,18.10
2022-08-22T10:23:34.215Z,17.68
2022-08-22T10:26:25.637Z,17.84
2022-08-22T10:29:15.612Z,17.97
2022-08-22T10:31:59.411Z,17.98
2022-08-22T10:34:38.248Z,18.24
2022-08-22T10:37:37.479Z,18.13
2022-08-22T10:40:24.705Z,18.25
2022-08-22T10:43:28.962Z,17.86
2022-08-22T10:46:15.587Z,18.16
2022-08-22T10:48:50.538Z,17.87
2022-08-22T10:51:23.889Z,17.90
2022-08-22T10:54:05.521Z,18.16
2022-08-22T10:57:07.098Z,18.05
2022-08-22T10:59:59.819Z,18.13
2022-08-22T11:02:31.615Z,17.67
2022-08-22T11:05:37.711Z,17.73
2022-08-22T11:08:51.051Z,17.92
2022-08-22T11:11:32.933Z,17.64
2022-08-22T11:14:23.420Z,17.79
2022-08-22T11:16:55.405Z,17.46
2022-08-22T11:19:55.487Z,17.72
2022-08-22T11:23:04.880Z,17.66
2022-08-22T11:25:52.379Z,17.74
2022-08-22T11:28:28.862Z,17.51
2022-08-22T11:31:36.631Z,17.62
2022-08-22T11:34:44.794Z,17.82
2022-08-22T11:37:24.106Z,17.36
2022-08-22T11:40:20.373Z,17.43
2022-08-22T11:43:26.638Z,17.26
2022-08-22T11:46:04.094Z,17.44
2022-08-22T11:48:56.790Z,17.59
2022-08-22T11:51:46.901Z,17.56
2022-08-22T11:54:45.416Z,17.59
2022-08-22T11:57:26.102Z,17.36
2022-08-22T12:00:13.904Z,17.37
2022-08-22T12:02:59.491Z,17.13
2022-08-22T12:05:52.499Z,17.45
2022-08-22T12:08:51.769Z,17.31
2022-08-22T12:11:31.138Z,17.11
2022-08-22T12:14:12.167Z,17.45
2022-08-22T12:17:06.719Z,17.36
2022-08-22T12:20:15.006Z,17.20
2022-08-22T12:22:51.245Z,17.08
2022-08-22T12:25:44.420Z,17.27
2022-08-22T12:28:20.449Z,17.20
2022-08-22T12:30:59.780Z,16.73
2022-08-22T12:33:41.342Z,17.14
2022-08-22T12:36:28.653Z,16.88
2022-08-22T12:39:12.950Z,16.81
2022-08-22T12:42:25.331Z,16.85
2022-08-22T12:45:34.441Z,16.63
2022-08-22T12:48:21.932Z,17.02
2022-08-22T12:51:01.931Z,17.06
2022-08-22T12:54:06.351Z,16.93
2022-08-22T12:57:24.368Z,16.91
2022-08-22T13:00:11.641Z,16.59
2022-08-22T13:02:42.557Z,16.76
2022-08-22T13:05:19.951Z,16.99
2022-08-22T13:08:04.702Z,16.60
2022-08-22T13:11:00.151Z,16.63
2022-08-22T13:13:38.974Z,16.53
2022-08-22T13:16:12.268Z,16.76
2022-08-22T13:18:53.524Z,16.99
2022-08-22T13:21:36.227Z,16.92
2022-08-22T13:24:22.682Z,16.95
2022-08-22T13:27:12.799Z,16.77
2022-08-22T13:29:54.985Z,16.50
2022-08-22T13:32:51.681Z,16.25
2022-08-22T13:35:24.863Z,16.73
2022-08-22T13:38:04.457Z,16.78
2022-08-22T13:40:35.174Z,16.78
2022-08-22T13:43:08.953Z,16.70
2022-08-22T13:45:39.727Z,16.70
2022-08-22T13:48:15.113Z,16.75
2022-08-22T13:51:12.850Z,16.74
2022-08-22T13:54:11.213Z,16.72
2022-08-22T13:56:56.898Z,16.70
2022-08-22T13:59:52.656Z,16.71
2022-08-22T14:02:23.516Z,16.68
2022-08-22T14:05:09.382Z,16.71
2022-08-22T14:08:13.025Z,16.77
2022-08-22T14:11:11.335Z,16.65
2022-08-22T14:13:54.771Z,16.68
2022-08-22T14:16:35.099Z,16.72
2022-08-22T14:19:09.800Z,16.72
2022-08-22T14:21:44.992Z,16.70
2022-08-22T14:24:34.105Z,16.70
2022-08-22T14:27:27.856Z,16.70
2022-08-22T14:30:05.434Z,16.82
2022-08-22T14:32:57.172Z,16.87
2022-08-22T14:35:38.618Z,16.79
2022-08-22T14:38:32.512Z,16.82
2022-08-22T14:41:52.867Z,16.86
2022-08-22T14:44:24.836Z,16.84
2022-08-22T14:46:58.778Z,16.76
2022-08-22T14:49:55.258Z,16.55
2022-08-22T14:52:40.644Z,16.73
2022-08-22T14:55:24.055Z,16.62
2022-08-22T14:58:08.977Z,16.51
2022-08-22T15:00:41.969Z,16.68
2022-08-22T15:03:17.717Z,16.58
2022-08-22T15:05:52.897Z,16.86
2022-08-22T15:08:42.183Z,16.86
2022-08-22T15:11:23.109Z,16.87
2022-08-22T15:14:03.252Z,17.03
2022-08-22T15:16:40.464Z,17.09
2022-08-22T15:19:35.769Z,17.03
2022-08-22T15:22:14.166Z,17.20
2022-08-22T15:24:51.750Z,17.25
2022-08-22T15:27:28.409Z,17.24
2022-08-22T15:30:01.991Z,17.28
2022-08-22T15:32:36.582Z,17.26
2022-08-22T15:35:32.249Z,17.36
2022-08-22T15:38:28.607Z,17.35
2022-08-22T15:41:18.617Z,17.44
2022-08-22T15:43:54.780Z,17.49
2022-08-22T15:46:34.260Z,17.55
2022-08-22T15:49:07.301Z,17.54
2022-08-22T15:52:01.808Z,17.60
2022-08-22T15:54:57.037Z,17.59
2022-08-22T15:57:39.804Z,17.72
2022-08-22T16:00:31.925Z,17.65
2022-08-22T16:03:19.549Z,17.57
2022-08-22T16:05:55.680Z,17.99
2022-08-22T16:08:33.109Z,17.82
2022-08-22T16:11:05.440Z,17.81
2022-08-22T16:13:39.483Z,18.07
2022-08-22T16:16:34.619Z,18.17
2022-08-22T16:19:03.888Z,18.24
2022-08-22T16:21:32.878Z,18.36
2022-08-22T16:24:01.889Z,18.34
2022-08-22T16:26:30.985Z,18.43
2022-08-22T16:29:28.431Z,18.51
2022-08-22T16:32:02.848Z,18.62
2022-08-22T16:34:37.734Z,18.62
2022-08-22T16:37:09.831Z,18.71
2022-08-22T16:39:45.333Z,18.73
2022-08-22T16:42:15.030Z,18.88
2022-08-22T16:44:57.081Z,19.04
2022-08-22T16:47:35.025Z,19.33
2022-08-22T16:50:24.574Z,19.44
2022-08-22T16:52:58.505Z,19.39
2022-08-22T16:55:30.746Z,19.68
2022-08-22T16:58:57.016Z,19.80
2022-08-22T17:01:38.935Z,20.00
2022-08-22T17:04:28.480Z,20.20
2022-08-22T17:07:31.828Z,20.26
2022-08-22T17:10:24.056Z,20.33
2022-08-22T17:13:11.605Z,20.48
2022-08-22T17:15:58.818Z,20.69
2022-08-22T17:19:15.577Z,20.75
2022-08-22T17:21:56.415Z,20.78
2022-08-22T17:24:39.465Z,20.99
2022-08-22T17:27:32.891Z,21.21
2022-08-22T17:30:10.883Z,21.36
2022-08-22T17:33:27.991Z,21.32
2022-08-22T17:36:26.218Z,21.38
2022-08-22T17:39:25.478Z,21.57
2022-08-22T17:42:36.053Z,21.69
2022-08-22T17:45:32.200Z,21.77
2022-08-22T17:48:07.047Z,21.86
2022-08-22T17:50:45.789Z,22.03
2022-08-22T17:54:03.440Z,22.19
2022-08-22T17:56:43.061Z,22.16
2022-08-22T17:59:38.333Z,22.24
2022-08-22T18:04:49.669Z,22.62
2022-08-22T18:07:36.444Z,22.68
2022-08-22T18:10:05.604Z,22.62
2022-08-22T18:12:53.624Z,22.79
2022-08-22T18:15:28.284Z,23.10
2022-08-22T18:18:37.047Z,23.05
2022-08-22T18:21:26.922Z,23.19
2022-08-22T18:24:03.511Z,23.17
2022-08-22T18:26:43.682Z,23.41
2022-08-22T18:29:32.461Z,23.65
2022-08-22T18:32:16.535Z,23.90
2022-08-22T18:34:57.466Z,23.57
2022-08-22T18:37:35.348Z,23.79
2022-08-22T18:40:12.760Z,24.14
2022-08-22T18:42:50.692Z,24.07
2022-08-22T18:45:44.126Z,24.04
2022-08-22T18:48:54.352Z,23.86
2022-08-22T18:51:39.407Z,24.02
2022-08-22T18:54:08.512Z,24.05
2022-08-22T18:57:01.901Z,24.49
2022-08-22T19:00:00.497Z,24.30
2022-08-22T19:02:58.441Z,24.65
2022-08-22T19:05:30.349Z,24.57
2022-08-22T19:08:18.008Z,24.90
2022-08-22T19:11:03.897Z,25.22
2022-08-22T19:14:03.841Z,25.42
2022-08-22T19:16:46.695Z,25.31
2022-08-22T19:19:55.941Z,25.68
2022-08-22T19:22:33.346Z,25.31
2022-08-22T19:25:10.885Z,25.46
2022-08-22T19:28:06.100Z,25.64
2022-08-22T19:30:35.169Z,25.65
2022-08-22T19:33:20.020Z,25.97
2022-08-22T19:36:13.915Z,25.93
2022-08-22T19:38:58.750Z,25.52
2022-08-22T19:41:55.028Z,25.67
2022-08-22T19:44:24.198Z,26.06
2022-08-22T19:47:19.545Z,25.81
2022-08-22T19:49:51.791Z,25.76
2022-08-22T19:52:48.823Z,26.06
2022-08-22T19:55:17.834Z,26.22
2022-08-22T19:58:08.597Z,26.34
2022-08-22T20:00:55.817Z,26.61
2022-08-22T20:03:28.224Z,25.93
2022-08-22T20:06:42.886Z,25.95
2022-08-22T20:09:39.009Z,26.69
2022-08-22T20:12:15.746Z,26.91
2022-08-22T20:14:48.473Z,26.58
2022-08-22T20:17:26.619Z,27.06
2022-08-22T20:22:56.612Z,26.77
2022-08-22T20:25:49.434Z,26.92
2022-08-22T20:28:37.379Z,27.05
2022-08-22T20:31:13.149Z,26.98
2022-08-22T20:33:46.622Z,27.14
2022-08-22T20:36:28.334Z,27.18
2022-08-22T20:39:11.783Z,27.55
2022-08-22T20:41:44.830Z,27.31
2022-08-22T20:44:35.409Z,27.47
2022-08-22T20:47:12.147Z,27.81
2022-08-22T20:49:49.703Z,27.33
2022-08-22T20:52:30.012Z,27.38
2022-08-22T20:55:14.045Z,27.84
2022-08-22T20:58:04.914Z,28.46
2022-08-22T21:00:45.623Z,28.63
2022-08-22T21:03:48.420Z,27.50
2022-08-22T21:06:30.129Z,27.88
2022-08-22T21:09:31.468Z,28.36
2022-08-22T21:12:02.137Z,28.07
2022-08-22T21:14:42.763Z,28.24
2022-08-22T21:17:23.096Z,29.22
2022-08-22T21:19:52.833Z,28.48
2022-08-22T21:22:32.336Z,29.39
2022-08-22T21:25:02.291Z,28.53
2022-08-22T21:27:34.771Z,28.33
2022-08-22T21:30:09.475Z,28.45
2022-08-22T21:32:44.140Z,29.14
2022-08-22T21:35:33.179Z,28.21
2022-08-22T21:38:03.034Z,28.73
2022-08-22T21:40:39.113Z,29.31
2022-08-22T21:43:27.875Z,29.54
2022-08-22T21:45:57.119Z,29.45
2022-08-22T21:48:40.077Z,28.88
2022-08-22T21:51:29.301Z,29.10
2022-08-22T21:54:43.486Z,29.84
2022-08-22T21:57:12.875Z,29.48
2022-08-22T21:59:52.198Z,29.40
2022-08-22T22:02:34.203Z,29.75
2022-08-22T22:05:14.271Z,29.16
2022-08-22T22:07:47.439Z,30.05
2022-08-22T22:10:19.520Z,29.87
2022-08-22T22:12:54.418Z,29.77
2022-08-22T22:15:26.814Z,29.84
2022-08-22T22:17:56.983Z,29.42
2022-08-22T22:20:30.432Z,30.05
2022-08-22T22:23:00.016Z,30.24
2022-08-22T22:25:41.192Z,30.25
2022-08-22T22:28:18.336Z,30.61
2022-08-22T22:30:51.358Z,30.20
2022-08-22T22:33:29.640Z,30.33
2022-08-22T22:36:04.568Z,30.19
2022-08-22T22:38:33.674Z,31.05
2022-08-22T22:41:02.771Z,30.67
2022-08-22T22:43:32.140Z,30.73
2022-08-22T22:46:01.145Z,30.22
2022-08-22T22:48:30.307Z,29.36
2022-08-22T22:50:59.299Z,29.39
2022-08-22T22:53:33.727Z,29.86
2022-08-22T22:56:14.343Z,29.71
2022-08-22T22:58:45.209Z,30.57
2022-08-22T23:01:24.084Z,31.01
2022-08-22T23:03:59.316Z,29.83
2022-08-22T23:06:36.040Z,31.16
2022-08-22T23:09:05.194Z,29.80
2022-08-22T23:11:34.257Z,29.53
2022-08-22T23:14:03.860Z,30.65
2022-08-22T23:16:37.335Z,29.76
2022-08-22T23:19:11.885Z,30.14
2022-08-22T23:21:42.911Z,29.92
2022-08-22T23:24:12.902Z,29.76
2022-08-22T23:26:43.083Z,29.59
2022-08-22T23:29:13.287Z,30.13
2022-08-22T23:31:56.441Z,30.72
2022-08-22T23:34:28.362Z,31.05
2022-08-22T23:37:00.098Z,30.17
2022-08-22T23:39:31.638Z,30.09
2022-08-22T23:42:01.303Z,30.02
2022-08-22T23:44:33.148Z,30.01
2022-08-22T23:47:04.774Z,31.11
2022-08-22T23:49:35.504Z,31.24
2022-08-22T23:52:06.410Z,30.44
2022-08-22T23:54:35.860Z,30.82
2022-08-22T23:57:11.989Z,30.96
2022-08-22T23:59:48.038Z,31.25
